Time;durP1;ratioP1;P1;durP2;ratioP2;P2;SDS_P1;SDS_P2;PMS_P1;PMS_P2;Temp;Humidity;BMP_temperature;BMP_pressure;BME280_temperature;BME280_humidity;BME280_pressure;Samples;Min_cycle;Max_cycle;Signal;HPM_P1;HPM_P2
2023/06/25 00:00:47;;;;;;;16.00;12.75;;;;;;;19.86;73.29;102216.72;7386996;19;20508;-63
2023/06/25 00:03:14;;;;;;;17.73;12.02;;;;;;;20.13;72.66;102219.59;7389011;19;20035;-61
2023/06/25 00:05:42;;;;;;;18.20;12.93;;;;;;;20.24;71.78;102215.94;7387374;19;20460;-61
2023/06/25 00:08:09;;;;;;;20.48;13.52;;;;;;;20.23;71.69;102218.78;7389323;19;20018;-61
2023/06/25 00:10:36;;;;;;;19.95;13.85;;;;;;;19.98;72.71;102215.59;7388983;19;20047;-61
2023/06/25 00:13:04;;;;;;;18.70;13.57;;;;;;;19.97;72.69;102208.53;7388667;19;20034;-61
2023/06/25 00:15:31;;;;;;;17.77;12.55;;;;;;;20.10;72.21;102208.25;7388905;19;20014;-61
2023/06/25 00:17:59;;;;;;;21.73;13.10;;;;;;;20.25;71.87;102208.69;7388381;19;20054;-61
2023/06/25 00:20:26;;;;;;;20.67;13.68;;;;;;;20.21;71.29;102206.28;7393235;19;20404;-61
2023/06/25 00:22:54;;;;;;;17.30;11.98;;;;;;;20.21;71.54;102202.75;7394823;19;20078;-61
2023/06/25 00:25:34;;;;;;;16.88;12.27;;;;;;;20.28;71.33;102206.59;7393434;19;20503;-61
2023/06/25 00:28:02;;;;;;;18.38;11.70;;;;;;;20.34;71.15;102200.66;7395811;19;20081;-61
2023/06/25 00:30:29;;;;;;;17.83;12.27;;;;;;;20.32;71.17;102193.69;7394264;19;20054;-61
2023/06/25 00:32:57;;;;;;;19.30;13.25;;;;;;;20.25;71.35;102196.09;7395382;19;20120;-61
2023/06/25 00:35:28;;;;;;;19.13;13.25;;;;;;;20.33;71.01;102200.78;7395486;19;20036;-62
2023/06/25 00:38:00;;;;;;;18.17;13.23;;;;;;;20.29;71.31;102196.66;7395063;19;20026;-62
2023/06/25 00:40:28;;;;;;;17.33;12.43;;;;;;;20.23;71.38;102205.31;7395486;19;20015;-61
2023/06/25 00:42:58;;;;;;;19.90;13.95;;;;;;;20.02;71.80;102200.03;7394979;19;20022;-61
2023/06/25 00:45:26;;;;;;;18.42;12.48;;;;;;;19.83;72.97;102203.53;7395205;19;20035;-58
2023/06/25 00:47:54;;;;;;;18.60;12.80;;;;;;;19.86;72.68;102203.28;7394152;19;20492;-58
2023/06/25 00:50:25;;;;;;;16.77;12.68;;;;;;;19.82;72.65;102207.22;7394673;19;20019;-58
2023/06/25 00:52:52;;;;;;;18.67;13.27;;;;;;;19.74;73.00;102205.22;7394825;19;20027;-59
2023/06/25 00:55:20;;;;;;;19.20;14.00;;;;;;;19.65;73.18;102198.84;7393103;19;20015;-59
2023/06/25 00:57:47;;;;;;;20.13;13.82;;;;;;;19.61;73.63;102202.75;7394409;19;20100;-58
2023/06/25 01:00:15;;;;;;;16.48;12.02;;;;;;;19.78;73.00;102203.97;7394791;19;20046;-57
2023/06/25 01:02:50;;;;;;;16.98;12.57;;;;;;;19.93;72.96;102196.34;7394041;19;20018;-58
2023/06/25 01:05:27;;;;;;;15.63;11.85;;;;;;;19.96;72.54;102202.31;7394471;19;20586;-58
2023/06/25 01:07:57;;;;;;;16.65;12.32;;;;;;;19.94;72.43;102193.50;7394004;19;20456;-58
2023/06/25 01:10:25;;;;;;;17.95;13.55;;;;;;;19.81;72.61;102192.09;7394072;19;20060;-58
2023/06/25 01:12:54;;;;;;;17.90;13.68;;;;;;;19.45;74.38;102192.50;7394231;19;20394;-58
2023/06/25 01:15:22;;;;;;;16.88;11.85;;;;;;;19.57;73.94;102187.88;7394025;19;20022;-58
2023/06/25 01:17:49;;;;;;;17.58;13.05;;;;;;;19.54;73.76;102188.16;7393042;19;20022;-58
2023/06/25 01:20:16;;;;;;;18.98;12.63;;;;;;;19.50;74.16;102184.06;7393848;19;20082;-59
2023/06/25 01:22:47;;;;;;;15.63;12.23;;;;;;;19.68;73.53;102192.31;7392186;19;20015;-58
2023/06/25 01:25:14;;;;;;;18.17;13.23;;;;;;;19.66;73.54;102186.25;7393973;19;20456;-58
2023/06/25 01:27:41;;;;;;;18.45;12.57;;;;;;;19.51;74.45;102187.59;7390029;19;20100;-58
2023/06/25 01:30:10;;;;;;;16.38;12.23;;;;;;;19.70;73.77;102185.84;7391641;19;20790;-58
2023/06/25 01:32:41;;;;;;;15.77;11.60;;;;;;;19.73;73.19;102182.03;7393364;19;20014;-60
2023/06/25 01:35:09;;;;;;;16.88;11.70;;;;;;;19.71;73.20;102187.53;7392051;19;20019;-61
2023/06/25 01:37:36;;;;;;;19.30;12.57;;;;;;;19.72;73.32;102181.16;7392738;19;20029;-62
2023/06/25 01:40:07;;;;;;;16.52;11.70;;;;;;;19.70;72.99;102180.47;7393084;19;20097;-65
2023/06/25 01:42:35;;;;;;;18.88;13.52;;;;;;;19.57;73.56;102178.97;7393241;19;20038;-67
2023/06/25 01:45:04;;;;;;;19.42;13.70;;;;;;;19.29;74.49;102173.34;7391502;19;20390;-67
2023/06/25 01:47:31;;;;;;;17.50;12.43;;;;;;;19.13;75.09;102173.84;7390699;19;20015;-63
2023/06/25 01:50:02;;;;;;;18.17;13.13;;;;;;;19.20;75.13;102169.66;7393730;19;20010;-63
2023/06/25 01:52:30;;;;;;;15.40;12.10;;;;;;;19.18;75.10;102176.97;7392790;19;20014;-64
2023/06/25 01:54:57;;;;;;;18.15;12.57;;;;;;;19.32;74.63;102165.03;7391916;19;20047;-64
2023/06/25 01:57:24;;;;;;;17.77;12.45;;;;;;;19.51;74.37;102166.94;7392308;19;20022;-64
2023/06/25 01:59:51;;;;;;;16.48;12.55;;;;;;;19.59;73.66;102155.50;7393222;19;20494;-64
2023/06/25 02:02:19;;;;;;;18.40;11.80;;;;;;;19.59;73.54;102156.34;7392641;19;20043;-62
2023/06/25 02:04:46;;;;;;;19.27;12.80;;;;;;;19.61;73.37;102156.19;7389809;19;20417;-62
2023/06/25 02:07:13;;;;;;;17.55;13.00;;;;;;;19.49;74.00;102150.09;7388353;19;20498;-62
2023/06/25 02:09:41;;;;;;;18.40;12.90;;;;;;;19.56;73.48;102147.72;7391096;19;20029;-60
2023/06/25 02:12:08;;;;;;;16.70;12.40;;;;;;;19.58;73.74;102151.13;7392859;19;20363;-61
2023/06/25 02:14:36;;;;;;;17.98;12.73;;;;;;;19.55;73.45;102152.25;7391759;19;20039;-61
2023/06/25 02:17:03;;;;;;;16.70;12.00;;;;;;;19.55;73.59;102149.56;7391510;19;20026;-61
2023/06/25 02:19:30;;;;;;;18.00;12.70;;;;;;;19.48;74.00;102149.25;7392134;19;20047;-64
2023/06/25 02:21:58;;;;;;;15.68;11.90;;;;;;;19.53;73.81;102145.28;7392220;19;20097;-65
2023/06/25 02:24:25;;;;;;;16.80;12.50;;;;;;;19.52;74.06;102141.75;7390927;19;20047;-63
2023/06/25 02:26:52;;;;;;;16.98;11.80;;;;;;;19.52;73.95;102138.22;7390529;19;20053;-64
2023/06/25 02:29:19;;;;;;;18.75;12.85;;;;;;;19.38;74.27;102140.28;7390114;19;20025;-64
2023/06/25 02:31:47;;;;;;;15.85;12.35;;;;;;;19.36;74.10;102133.38;7391964;19;20010;-64
2023/06/25 02:34:16;;;;;;;18.70;13.13;;;;;;;19.38;74.25;102137.59;7388963;19;20082;-63
2023/06/25 02:36:43;;;;;;;18.80;13.50;;;;;;;19.34;74.43;102128.13;7391182;19;20035;-63
2023/06/25 02:39:11;;;;;;;18.48;12.90;;;;;;;19.28;74.56;102135.91;7391483;19;20014;-63
2023/06/25 02:41:38;;;;;;;19.17;13.98;;;;;;;19.28;74.49;102128.69;7391616;19;20014;-63
2023/06/25 02:44:05;;;;;;;18.45;13.82;;;;;;;19.24;74.39;102133.47;7387866;19;20048;-63
2023/06/25 02:46:34;;;;;;;18.70;13.25;;;;;;;19.24;74.20;102135.31;7389689;19;20045;-63
2023/06/25 02:49:02;;;;;;;18.88;13.88;;;;;;;19.21;74.55;102133.75;7389762;19;20019;-63
2023/06/25 02:51:29;;;;;;;17.70;13.45;;;;;;;19.23;74.47;102131.78;7391321;19;20018;-64
2023/06/25 02:53:56;;;;;;;19.85;13.75;;;;;;;19.22;74.35;102130.06;7390626;19;20039;-64
2023/06/25 02:56:24;;;;;;;20.23;14.43;;;;;;;19.20;74.27;102134.72;7388940;19;20104;-65
2023/06/25 02:58:51;;;;;;;18.17;13.40;;;;;;;19.22;74.48;102126.53;7389218;19;20382;-62
2023/06/25 03:01:18;;;;;;;19.15;13.60;;;;;;;19.14;74.81;102129.88;7390537;19;20014;-62
2023/06/25 03:03:45;;;;;;;20.15;15.20;;;;;;;19.11;74.66;102130.16;7388528;19;20037;-62
2023/06/25 03:06:13;;;;;;;20.23;14.02;;;;;;;19.13;74.75;102133.56;7388539;19;20022;-62
2023/06/25 03:08:40;;;;;;;17.95;13.10;;;;;;;19.11;74.66;102130.16;7390535;19;20051;-63
2023/06/25 03:11:07;;;;;;;18.45;13.15;;;;;;;19.17;74.40;102126.94;7389033;19;20015;-62
2023/06/25 03:13:34;;;;;;;18.45;13.40;;;;;;;19.23;74.09;102137.16;7388365;19;20365;-63
2023/06/25 03:16:02;;;;;;;18.02;13.07;;;;;;;19.23;74.27;102123.72;7389758;19;20031;-63
2023/06/25 03:18:29;;;;;;;19.80;14.30;;;;;;;19.26;74.10;102127.94;7390279;19;20018;-63
2023/06/25 03:20:56;;;;;;;17.92;13.50;;;;;;;19.21;74.68;102123.00;7390974;19;20015;-62
2023/06/25 03:23:24;;;;;;;17.73;13.70;;;;;;;19.24;74.44;102124.56;7390361;19;20019;-62
2023/06/25 03:25:51;;;;;;;21.42;13.88;;;;;;;19.19;74.37;102124.97;7389728;19;20015;-63
2023/06/25 03:28:18;;;;;;;19.48;14.30;;;;;;;19.19;74.29;102119.63;7388567;19;20042;-63
2023/06/25 03:30:47;;;;;;;19.75;13.15;;;;;;;19.15;74.48;102120.00;7388827;19;20435;-62
2023/06/25 03:33:15;;;;;;;20.27;14.02;;;;;;;19.15;74.42;102125.38;7389782;19;20018;-60
2023/06/25 03:35:42;;;;;;;20.40;14.10;;;;;;;19.10;74.46;102130.31;7385938;19;20043;-60
2023/06/25 03:38:10;;;;;;;18.25;12.50;;;;;;;19.04;74.78;102118.28;7389925;19;20496;-60
2023/06/25 03:40:39;;;;;;;17.67;12.80;;;;;;;18.98;75.48;102116.97;7388317;19;20027;-63
2023/06/25 03:43:06;;;;;;;18.55;13.52;;;;;;;19.05;75.02;102111.91;7387913;19;20023;-63
2023/06/25 03:45:33;;;;;;;19.75;13.35;;;;;;;18.93;75.40;102113.84;7387347;19;20039;-63
2023/06/25 03:48:01;;;;;;;18.83;13.05;;;;;;;18.92;75.88;102106.75;7388698;19;20015;-63
2023/06/25 03:50:28;;;;;;;16.15;12.40;;;;;;;19.10;75.22;102109.66;7388377;19;20086;-58
2023/06/25 03:52:56;;;;;;;17.00;11.98;;;;;;;19.27;74.60;102112.69;7388900;19;20014;-66
2023/06/25 03:55:23;;;;;;;16.95;11.55;;;;;;;19.30;74.34;102109.72;7393514;19;20022;-66
2023/06/25 03:57:50;;;;;;;17.05;11.95;;;;;;;19.27;74.01;102113.56;7395461;19;20014;-60
2023/06/25 04:00:18;;;;;;;14.07;10.73;;;;;;;19.27;74.17;102107.31;7395118;19;20014;-59
2023/06/25 04:02:45;;;;;;;16.85;12.23;;;;;;;19.33;74.14;102113.00;7395604;19;20488;-60
2023/06/25 04:05:13;;;;;;;15.77;11.20;;;;;;;19.30;73.94;102110.56;7394657;19;20014;-66
2023/06/25 04:07:40;;;;;;;14.98;11.50;;;;;;;19.31;74.16;102114.97;7392500;19;20511;-66
2023/06/25 04:10:08;;;;;;;18.33;12.38;;;;;;;19.37;73.93;102111.72;7395938;19;20032;-66
2023/06/25 04:12:35;;;;;;;16.75;12.43;;;;;;;19.30;74.39;102115.94;7396280;19;20472;-66
2023/06/25 04:15:02;;;;;;;17.70;12.82;;;;;;;19.26;74.36;102111.84;7394042;19;20035;-66
2023/06/25 04:17:31;;;;;;;17.20;12.63;;;;;;;19.34;74.70;102111.16;7396035;19;20096;-67
2023/06/25 04:19:58;;;;;;;17.95;13.27;;;;;;;19.35;74.33;102113.72;7396526;19;20492;-68
2023/06/25 04:22:25;;;;;;;18.20;13.02;;;;;;;19.38;74.42;102112.56;7396231;19;20023;-72
2023/06/25 04:24:53;;;;;;;17.55;13.73;;;;;;;19.37;74.40;102103.66;7392014;19;20350;-70
2023/06/25 04:27:20;;;;;;;18.35;13.93;;;;;;;19.39;74.24;102099.03;7392312;19;20018;-59
2023/06/25 04:29:47;;;;;;;17.75;13.55;;;;;;;19.41;74.27;102101.56;7395351;19;20014;-60
2023/06/25 04:32:15;;;;;;;18.20;14.05;;;;;;;19.46;74.00;102104.72;7395754;19;20039;-60
2023/06/25 04:34:42;;;;;;;17.08;13.52;;;;;;;19.48;74.25;102105.41;7392708;19;20022;-59
2023/06/25 04:37:09;;;;;;;18.20;14.43;;;;;;;19.49;74.23;102109.78;7394968;19;20014;-60
2023/06/25 04:39:39;;;;;;;21.20;15.00;;;;;;;19.55;73.83;102103.88;7395713;19;20068;-59
2023/06/25 04:42:06;;;;;;;20.60;14.57;;;;;;;19.52;74.01;102101.44;7394771;19;20023;-59
2023/06/25 04:44:34;;;;;;;20.15;14.32;;;;;;;19.49;73.90;102104.41;7394728;19;20100;-60
2023/06/25 04:47:01;;;;;;;20.13;15.00;;;;;;;19.53;74.21;102100.44;7393520;19;20014;-60
2023/06/25 04:49:29;;;;;;;18.85;14.10;;;;;;;19.56;73.93;102097.50;7394828;19;20516;-61
2023/06/25 04:51:56;;;;;;;18.85;13.95;;;;;;;19.59;73.54;102101.75;7393001;19;20035;-60
2023/06/25 04:54:23;;;;;;;19.08;14.02;;;;;;;19.62;74.18;102099.66;7392066;19;20043;-60
2023/06/25 04:56:50;;;;;;;18.38;14.13;;;;;;;19.76;73.39;102098.41;7393850;19;20035;-61
2023/06/25 04:59:18;;;;;;;19.02;14.60;;;;;;;19.85;73.29;102097.56;7394557;19;20015;-60
2023/06/25 05:01:45;;;;;;;18.88;14.07;;;;;;;19.84;72.94;102092.31;7394493;19;20583;-60
2023/06/25 05:04:12;;;;;;;18.75;14.13;;;;;;;19.80;73.44;102096.28;7394061;19;20015;-60
2023/06/25 05:06:39;;;;;;;18.92;14.00;;;;;;;19.87;73.23;102092.88;7392874;19;20014;-60
2023/06/25 05:09:07;;;;;;;20.05;14.68;;;;;;;19.94;72.79;102103.94;7394819;19;20026;-60
2023/06/25 05:11:34;;;;;;;18.17;14.02;;;;;;;19.98;72.79;102094.59;7394146;19;20050;-60
2023/06/25 05:14:01;;;;;;;17.30;14.27;;;;;;;20.00;72.55;102091.78;7392226;19;20030;-60
2023/06/25 05:16:28;;;;;;;21.65;14.68;;;;;;;20.03;72.33;102097.69;7393907;19;20036;-60
2023/06/25 05:18:56;;;;;;;19.38;14.35;;;;;;;20.07;72.41;102096.44;7393977;19;20027;-60
2023/06/25 05:21:23;;;;;;;19.45;13.73;;;;;;;20.08;71.93;102100.81;7392799;19;20026;-60
2023/06/25 05:24:01;;;;;;;19.13;13.75;;;;;;;20.10;71.72;102090.75;7393648;19;20018;-60
2023/06/25 05:26:29;;;;;;;20.67;14.43;;;;;;;20.13;71.95;102092.31;7391337;19;20364;-64
2023/06/25 05:28:56;;;;;;;19.27;13.70;;;;;;;20.22;71.28;102091.44;7390150;19;20025;-67
2023/06/25 05:31:23;;;;;;;18.38;13.32;;;;;;;20.30;70.79;102086.22;7391650;19;20015;-65
2023/06/25 05:33:51;;;;;;;17.77;13.50;;;;;;;20.35;70.88;102089.31;7393628;19;20093;-65
2023/06/25 05:36:18;;;;;;;17.90;12.38;;;;;;;20.38;71.02;102090.88;7391232;19;20023;-64
2023/06/25 05:38:45;;;;;;;20.27;13.63;;;;;;;20.42;70.45;102093.16;7392011;19;20018;-64
2023/06/25 05:41:15;;;;;;;19.63;12.48;;;;;;;20.42;70.39;102092.28;7393360;19;20022;-62
2023/06/25 05:43:42;;;;;;;18.67;12.48;;;;;;;20.47;70.43;102086.47;7392735;19;20014;-65
2023/06/25 05:46:11;;;;;;;16.73;12.45;;;;;;;20.54;70.39;102085.78;7392333;19;20500;-62
2023/06/25 05:48:39;;;;;;;18.00;12.57;;;;;;;20.53;70.45;102088.59;7391515;19;20036;-65
2023/06/25 05:51:07;;;;;;;16.83;12.57;;;;;;;20.56;70.81;102089.16;7393374;19;20018;-65
2023/06/25 05:53:43;;;;;;;17.88;11.73;;;;;;;20.68;70.48;102077.25;7392818;19;20019;-65
2023/06/25 05:56:11;;;;;;;15.45;11.73;;;;;;;20.71;69.70;102084.16;7392320;19;20098;-66
2023/06/25 05:58:43;;;;;;;16.15;11.43;;;;;;;20.76;69.83;102083.72;7391674;19;20039;-65
2023/06/25 06:01:10;;;;;;;16.80;11.85;;;;;;;20.80;69.92;102082.44;7391239;19;20025;-65
2023/06/25 06:03:38;;;;;;;17.40;11.30;;;;;;;20.85;69.95;102085.53;7392349;19;20022;-64
2023/06/25 06:06:06;;;;;;;18.85;12.13;;;;;;;20.91;69.89;102079.56;7392279;19;20023;-61
2023/06/25 06:08:33;;;;;;;16.10;11.52;;;;;;;20.94;70.00;102081.94;7390697;19;20014;-61
2023/06/25 06:11:00;;;;;;;18.00;11.27;;;;;;;20.99;70.26;102076.97;7390247;19;20019;-62
2023/06/25 06:13:28;;;;;;;16.50;11.07;;;;;;;21.04;69.82;102081.91;7390379;19;20149;-62
2023/06/25 06:15:55;;;;;;;16.02;10.98;;;;;;;21.08;70.21;102073.38;7391824;19;20030;-62
2023/06/25 06:18:22;;;;;;;18.23;11.30;;;;;;;21.13;69.91;102071.06;7390241;19;20479;-62
2023/06/25 06:20:49;;;;;;;16.23;10.85;;;;;;;21.18;69.81;102076.88;7391884;19;20014;-62
2023/06/25 06:23:17;;;;;;;15.25;9.80;;;;;;;21.22;68.94;102076.59;7391363;19;20047;-63
2023/06/25 06:25:44;;;;;;;18.20;11.15;;;;;;;21.26;69.08;102075.28;7389549;19;20022;-61
2023/06/25 06:28:11;;;;;;;15.20;9.98;;;;;;;21.27;68.96;102075.13;7390625;19;20043;-62
2023/06/25 06:30:39;;;;;;;15.95;10.20;;;;;;;21.30;69.12;102074.81;7391633;19;20134;-61
2023/06/25 06:33:06;;;;;;;15.63;10.75;;;;;;;21.36;69.02;102074.25;7391782;19;20019;-63
2023/06/25 06:35:34;;;;;;;16.42;10.98;;;;;;;21.39;68.90;102068.56;7389410;19;20014;-63
2023/06/25 06:38:02;;;;;;;15.20;9.98;;;;;;;21.44;69.12;102070.78;7391206;19;20021;-62
2023/06/25 06:40:31;;;;;;;14.60;10.63;;;;;;;21.48;68.59;102065.94;7391464;19;20038;-62
2023/06/25 06:42:59;;;;;;;15.60;9.90;;;;;;;21.50;68.62;102064.81;7391093;19;20078;-62
2023/06/25 06:45:26;;;;;;;14.00;9.75;;;;;;;21.56;68.25;102064.19;7389846;19;20018;-61
2023/06/25 06:47:53;;;;;;;11.57;7.82;;;;;;;21.60;67.76;102056.66;7389476;19;20018;-62
2023/06/25 06:50:21;;;;;;;14.18;8.98;;;;;;;21.63;68.10;102059.03;7391302;19;20039;-61
2023/06/25 06:52:48;;;;;;;13.18;8.60;;;;;;;21.64;68.06;102053.50;7390897;19;20022;-61
2023/06/25 06:55:15;;;;;;;14.07;8.57;;;;;;;21.73;67.86;102059.81;7389461;19;20022;-61
2023/06/25 06:57:43;;;;;;;11.90;7.78;;;;;;;21.77;67.43;102050.41;7390707;19;20026;-61
2023/06/25 07:00:10;;;;;;;11.32;7.22;;;;;;;21.79;67.31;102051.09;7389286;19;20473;-61
2023/06/25 07:02:41;;;;;;;14.68;7.60;;;;;;;21.84;67.62;102047.94;7404527;19;20041;-67
2023/06/25 07:05:08;;;;;;;10.88;6.95;;;;;;;21.90;66.43;102048.16;7403312;19;20022;-67
2023/06/25 07:07:36;;;;;;;11.25;6.95;;;;;;;21.94;66.59;102050.53;7396948;19;20014;-66
2023/06/25 07:10:03;;;;;;;10.35;6.82;;;;;;;21.98;66.30;102038.44;7390268;19;20019;-63
2023/06/25 07:12:30;;;;;;;11.65;7.28;;;;;;;22.00;66.60;102045.38;7390145;19;20018;-62
2023/06/25 07:14:58;;;;;;;12.00;7.00;;;;;;;22.03;65.74;102052.31;7389420;19;20014;-63
2023/06/25 07:17:25;;;;;;;11.50;6.93;;;;;;;22.05;65.50;102043.03;7389203;19;20022;-63
2023/06/25 07:19:53;;;;;;;10.93;6.70;;;;;;;22.13;64.91;102048.56;7389758;19;20022;-62
2023/06/25 07:22:20;;;;;;;10.10;6.68;;;;;;;22.21;65.06;102038.78;7387940;19;20487;-64
2023/06/25 07:24:47;;;;;;;11.55;7.60;;;;;;;22.25;64.51;102032.94;7388283;19;20014;-61
2023/06/25 07:27:14;;;;;;;10.73;6.60;;;;;;;22.28;64.65;102031.75;7389477;19;20337;-61
2023/06/25 07:29:42;;;;;;;12.75;6.65;;;;;;;22.35;64.32;102032.81;7391282;19;20509;-61
2023/06/25 07:32:09;;;;;;;10.32;7.25;;;;;;;22.35;64.71;102025.56;7398323;19;20026;-61
2023/06/25 07:34:36;;;;;;;10.93;6.80;;;;;;;22.43;64.28;102022.06;7393415;19;20007;-61
2023/06/25 07:37:04;;;;;;;11.70;7.43;;;;;;;22.48;64.22;102019.75;7396852;19;20029;-61
2023/06/25 07:39:33;;;;;;;10.20;6.18;;;;;;;22.57;63.76;102016.09;7396872;19;20078;-60
2023/06/25 07:42:01;;;;;;;9.82;6.78;;;;;;;22.62;63.80;102011.03;7397350;19;20018;-60
2023/06/25 07:44:28;;;;;;;10.02;6.32;;;;;;;22.65;63.55;102012.59;7396633;19;20022;-61
2023/06/25 07:46:58;;;;;;;10.55;6.57;;;;;;;22.71;63.01;102011.94;7396645;19;20611;-60
2023/06/25 07:49:26;;;;;;;10.15;6.47;;;;;;;22.74;62.54;102011.63;7394452;19;20019;-60
2023/06/25 07:51:53;;;;;;;11.15;6.70;;;;;;;22.84;62.73;102006.91;7396630;19;20018;-60
2023/06/25 07:54:21;;;;;;;9.10;6.00;;;;;;;22.96;61.50;102007.50;7395536;19;20456;-60
2023/06/25 07:56:48;;;;;;;10.13;5.93;;;;;;;22.99;61.29;102009.03;7394890;19;20026;-60
2023/06/25 07:59:16;;;;;;;10.88;6.20;;;;;;;23.08;60.46;102008.03;7396472;19;20027;-60
2023/06/25 08:01:44;;;;;;;10.15;5.78;;;;;;;23.11;59.88;102016.66;7396558;19;20015;-60
2023/06/25 08:04:12;;;;;;;9.73;5.45;;;;;;;23.17;60.14;102017.03;7396115;19;20018;-60
2023/06/25 08:06:40;;;;;;;11.57;6.72;;;;;;;23.18;60.43;102016.88;7396337;19;20070;-61
2023/06/25 08:09:07;;;;;;;10.85;6.07;;;;;;;23.21;59.76;102015.69;7393143;19;20559;-60
2023/06/25 08:11:35;;;;;;;9.85;6.90;;;;;;;23.28;58.91;102017.56;7396356;19;20019;-60
2023/06/25 08:14:02;;;;;;;9.85;5.97;;;;;;;23.42;58.31;102010.66;7395788;19;20030;-60
2023/06/25 08:16:29;;;;;;;10.02;6.40;;;;;;;23.37;58.83;102010.31;7395166;19;20043;-61
2023/06/25 08:18:56;;;;;;;10.00;6.55;;;;;;;23.49;59.14;102011.69;7396682;19;20022;-60
2023/06/25 08:21:24;;;;;;;11.07;6.35;;;;;;;23.60;57.72;102005.09;7395743;19;20014;-60
2023/06/25 08:23:51;;;;;;;8.88;5.95;;;;;;;23.51;58.01;102006.97;7396615;19;20019;-61
2023/06/25 08:26:19;;;;;;;11.57;6.30;;;;;;;23.64;56.49;101994.81;7395570;19;20027;-61
2023/06/25 08:28:46;;;;;;;9.68;5.57;;;;;;;23.71;56.27;101996.69;7394142;19;20022;-61
2023/06/25 08:31:13;;;;;;;8.95;6.20;;;;;;;23.80;56.28;101984.84;7395411;19;20082;-62
2023/06/25 08:33:41;;;;;;;9.38;5.90;;;;;;;23.82;56.25;101995.50;7394194;19;20010;-61
2023/06/25 08:36:08;;;;;;;7.88;5.75;;;;;;;23.78;57.63;101992.31;7393389;19;20039;-61
2023/06/25 08:38:36;;;;;;;8.10;5.70;;;;;;;23.75;57.25;101992.63;7395586;19;20019;-61
2023/06/25 08:41:04;;;;;;;9.25;5.70;;;;;;;23.84;56.30;101990.75;7393771;19;20048;-61
2023/06/25 08:43:32;;;;;;;8.52;5.43;;;;;;;24.01;54.48;101992.44;7394112;19;20014;-61
2023/06/25 08:45:59;;;;;;;9.07;5.25;;;;;;;24.02;54.33;101990.59;7392816;19;20043;-61
2023/06/25 08:48:29;;;;;;;11.38;5.90;;;;;;;24.08;53.60;101995.31;7392617;19;20026;-61
2023/06/25 08:51:03;;;;;;;9.98;5.30;;;;;;;24.16;54.09;101994.47;7395201;19;20032;-61
2023/06/25 08:53:31;;;;;;;10.07;5.80;;;;;;;24.19;54.02;101986.84;7395001;19;20022;-61
2023/06/25 08:56:00;;;;;;;8.70;5.70;;;;;;;24.24;53.88;101987.16;7392415;19;20043;-61
2023/06/25 08:58:29;;;;;;;11.57;5.68;;;;;;;24.23;53.63;101996.31;7395068;19;20022;-61
2023/06/25 09:00:56;;;;;;;9.50;6.13;;;;;;;24.34;53.88;101986.94;7394889;19;20476;-61
2023/06/25 09:03:23;;;;;;;9.77;5.80;;;;;;;24.40;53.64;101986.31;7394937;19;20017;-61
2023/06/25 09:05:53;;;;;;;8.73;6.07;;;;;;;24.41;53.65;101979.84;7391604;19;20031;-61
2023/06/25 09:08:24;;;;;;;9.00;5.68;;;;;;;24.43;53.54;101977.84;7392498;19;20037;-61
2023/06/25 09:10:53;;;;;;;10.23;6.03;;;;;;;24.45;53.79;101975.78;7394383;19;20014;-60
2023/06/25 09:13:27;;;;;;;10.07;5.65;;;;;;;24.55;53.84;101979.13;7392188;19;20018;-61
2023/06/25 09:16:06;;;;;;;8.75;5.65;;;;;;;24.48;54.18;101970.03;7392240;19;20070;-61
2023/06/25 09:18:33;;;;;;;9.77;6.55;;;;;;;24.61;54.15;101974.03;7394246;19;20025;-61
2023/06/25 09:21:08;;;;;;;10.23;6.32;;;;;;;24.73;54.07;101972.66;7394330;19;20476;-61
2023/06/25 09:23:37;;;;;;;8.38;6.18;;;;;;;24.65;54.16;101978.06;7393115;19;20030;-61
2023/06/25 09:26:07;;;;;;;9.02;5.80;;;;;;;24.70;53.15;101979.25;7391247;19;20043;-61
2023/06/25 09:28:49;;;;;;;9.98;5.97;;;;;;;24.78;52.45;101972.94;7392483;19;20027;-62
2023/06/25 09:31:17;;;;;;;10.45;6.22;;;;;;;24.71;53.58;101971.97;7394333;19;20078;-62
2023/06/25 09:33:51;;;;;;;9.70;6.18;;;;;;;24.76;53.07;101972.28;7394028;19;20492;-62
2023/06/25 09:36:19;;;;;;;7.95;5.72;;;;;;;24.55;53.52;101971.00;7393320;19;20014;-62
2023/06/25 09:38:53;;;;;;;9.18;6.10;;;;;;;24.49;54.51;101970.84;7394349;19;20018;-62
2023/06/25 09:41:21;;;;;;;8.82;6.38;;;;;;;24.65;52.81;101967.25;7393009;19;20022;-62
2023/06/25 09:43:50;;;;;;;8.70;6.10;;;;;;;24.80;51.75;101962.75;7393266;19;20026;-63
2023/06/25 09:46:19;;;;;;;10.25;6.32;;;;;;;24.66;51.94;101969.78;7392472;19;20011;-62
2023/06/25 09:48:51;;;;;;;8.88;5.88;;;;;;;24.61;51.14;101965.91;7392973;19;20019;-63
2023/06/25 09:51:22;;;;;;;8.32;5.43;;;;;;;24.54;51.67;101968.50;7392628;19;20496;-62
2023/06/25 09:53:52;;;;;;;13.25;6.07;;;;;;;24.62;51.22;101956.78;7391292;19;20018;-63
2023/06/25 09:56:21;;;;;;;8.38;5.50;;;;;;;24.88;50.98;101964.59;7392483;19;20010;-63
2023/06/25 09:58:49;;;;;;;9.98;5.82;;;;;;;25.06;50.37;101962.47;7393600;19;20025;-62
2023/06/25 10:01:16;;;;;;;8.75;5.68;;;;;;;25.02;50.34;101953.00;7391034;19;20015;-61
2023/06/25 10:03:44;;;;;;;10.05;6.13;;;;;;;24.99;50.73;101956.94;7392904;19;20034;-63
2023/06/25 10:06:12;;;;;;;8.05;5.95;;;;;;;25.10;51.19;101942.13;7392548;19;20070;-62
2023/06/25 10:08:39;;;;;;;8.88;5.45;;;;;;;25.15;51.71;101936.19;7392609;19;20519;-62
2023/06/25 10:11:07;;;;;;;9.02;5.97;;;;;;;25.14;52.02;101943.44;7393349;19;20039;-62
2023/06/25 10:13:40;;;;;;;10.80;6.13;;;;;;;25.31;50.59;101941.47;7393130;19;20083;-62
2023/06/25 10:16:07;;;;;;;8.93;5.93;;;;;;;25.29;51.19;101932.66;7392675;19;20030;-62
2023/06/25 10:18:45;;;;;;;10.63;6.13;;;;;;;25.32;51.29;101931.47;7390243;19;20031;-62
2023/06/25 10:21:20;;;;;;;9.32;5.60;;;;;;;25.35;50.49;101931.97;7392490;19;20022;-61
2023/06/25 10:23:59;;;;;;;13.65;6.63;;;;;;;25.32;49.73;101921.47;7391984;19;20018;-62
2023/06/25 10:26:33;;;;;;;8.48;5.43;;;;;;;25.47;48.68;101914.22;7392487;19;20022;-61
2023/06/25 10:29:05;;;;;;;8.10;5.35;;;;;;;25.43;47.70;101909.34;7391177;19;20135;-61
2023/06/25 10:31:37;;;;;;;8.23;5.30;;;;;;;25.53;48.81;101915.38;7391848;19;20026;-61
2023/06/25 10:34:06;;;;;;;10.18;6.13;;;;;;;25.60;48.55;101910.03;7391221;19;20259;-61
2023/06/25 10:36:33;;;;;;;9.07;5.70;;;;;;;25.60;48.04;101910.03;7391550;19;20039;-62
2023/06/25 10:39:01;;;;;;;9.35;5.55;;;;;;;25.61;49.44;101909.88;7390133;19;20022;-63
2023/06/25 10:41:29;;;;;;;8.30;5.10;;;;;;;25.87;48.08;101905.91;7391828;19;20030;-62
2023/06/25 10:43:58;;;;;;;10.07;5.78;;;;;;;25.89;48.13;101912.00;7390533;19;20019;-60
2023/06/25 10:46:32;;;;;;;8.27;5.32;;;;;;;25.85;47.69;101900.66;7391191;19;20022;-61
2023/06/25 10:49:02;;;;;;;8.40;5.40;;;;;;;25.67;49.26;101906.41;7391002;19;20014;-62
2023/06/25 10:51:30;;;;;;;9.43;5.43;;;;;;;25.65;47.48;101913.06;7392071;19;20015;-62
2023/06/25 10:53:57;;;;;;;8.25;5.40;;;;;;;25.59;47.39;101905.63;7390520;19;20022;-62
2023/06/25 10:56:25;;;;;;;7.97;5.07;;;;;;;25.57;47.17;101899.56;7390566;19;20017;-61
2023/06/25 10:58:56;;;;;;;9.05;5.45;;;;;;;25.47;47.43;101897.94;7390812;19;20515;-61
2023/06/25 11:01:24;;;;;;;8.90;5.40;;;;;;;25.66;48.31;101902.00;7390908;19;20051;-62
2023/06/25 11:03:52;;;;;;;9.38;6.00;;;;;;;25.77;46.74;101904.28;7388547;19;20014;-61
2023/06/25 11:06:19;;;;;;;8.60;5.32;;;;;;;25.59;47.46;101897.50;7390345;19;20018;-62
2023/06/25 11:08:47;;;;;;;9.20;5.25;;;;;;;25.65;46.73;101900.34;7390361;19;20014;-61
2023/06/25 11:11:15;;;;;;;8.50;5.55;;;;;;;25.62;47.05;101886.28;7390538;19;20030;-62
2023/06/25 11:13:42;;;;;;;9.38;5.28;;;;;;;25.75;46.00;101890.03;7390982;19;20033;-63
2023/06/25 11:16:12;;;;;;;7.80;4.97;;;;;;;25.78;45.70;101880.72;7387879;19;20018;-61
2023/06/25 11:18:39;;;;;;;9.73;5.20;;;;;;;25.71;46.20;101874.31;7390258;19;20022;-62